Skip Navigation

Christman Field Latest Observations

Switch to metric unitsOther observation timesWeekly graphs

Date Time
MST
Temp
°F
RH
%
DewPt
°F
Wind
mph
Dir
°
Gust
mph
Dir
°
Press
in Hg
Solar
W/m^2
Prec
in
2019-04-24 06:50 49.4 64.3 37.9 2.5 159 3.4 166 24.808 59.6 0.00
2019-04-24 06:45 49.3 64.3 37.7 1.9 171 3.6 165 24.809 52.2 0.00
2019-04-24 06:40 49.1 64.5 37.6 3.5 166 4.2 154 24.807 45.4 0.00
2019-04-24 06:35 48.8 64.3 37.3 3.6 158 4.3 156 24.807 31.0 0.00
2019-04-24 06:30 48.4 64.0 36.8 4.1 152 4.5 156 24.804 13.6 0.00
2019-04-24 06:25 48.2 64.8 36.9 4.2 152 4.9 156 24.801 33.0 0.00
2019-04-24 06:20 48.0 64.3 36.5 3.6 155 4.8 158 24.799 42.1 0.00
2019-04-24 06:15 47.7 68.8 38.0 1.4 159 2.8 164 24.798 44.2 0.00
2019-04-24 06:10 47.2 70.0 37.9 3.5 166 4.8 173 24.796 46.1 0.00
2019-04-24 06:05 46.6 68.3 36.7 3.0 175 4.1 179 24.795 42.8 0.00
2019-04-24 06:00 46.6 69.3 37.1 3.8 181 4.9 175 24.792 35.8 0.00
2019-04-24 05:55 46.8 65.8 36.0 4.1 171 4.5 154 24.793 30.4 0.00
2019-04-24 05:50 46.4 64.7 35.2 3.9 156 5.0 161 24.791 26.5 0.00
2019-04-24 05:45 47.5 64.8 36.2 0.8 169 2.8 179 24.790 24.2 0.00
2019-04-24 05:40 47.9 64.5 36.5 3.6 293 5.5 306 24.785 23.6 0.00
2019-04-24 05:35 46.4 65.4 35.4 4.3 323 5.7 332 24.784 26.1 0.00
2019-04-24 05:30 45.0 62.1 32.8 1.1 335 5.7 327 24.784 31.3 0.00
2019-04-24 05:25 44.1 67.9 34.2 0.4 110 1.9 116 24.783 18.1 0.00
2019-04-24 05:20 43.5 68.6 33.9 0.9 178 2.0 178 24.783 9.3 0.00
2019-04-24 05:15 43.8 69.2 34.4 2.3 178 3.6 175 24.782 5.1 0.00
2019-04-24 05:10 43.8 69.2 34.4 2.6 172 3.6 165 24.782 3.8 0.00
2019-04-24 05:05 44.3 67.9 34.4 2.3 159 3.6 153 24.783 2.2 0.00
2019-04-24 05:00 44.2 67.7 34.2 2.6 158 3.6 156 24.784 0.9 0.00
2019-04-24 04:55 44.5 68.3 34.7 3.5 141 4.8 136 24.784 0.4 0.00
2019-04-24 04:50 45.6 67.3 35.4 3.2 113 4.5 101 24.785 0.1 0.00
2019-04-24 04:45 47.0 63.1 35.2 2.4 127 3.2 86 24.786 0.0 0.00
2019-04-24 04:40 46.6 58.0 32.7 1.4 95 2.6 95 24.784 0.0 0.00
2019-04-24 04:35 46.8 61.5 34.2 2.0 135 4.3 16 24.784 0.0 0.00
2019-04-24 04:30 47.3 58.0 33.3 3.7 18 4.9 1 24.784 0.0 0.00
2019-04-24 04:25 47.4 57.8 33.3 3.8 350 5.0 9 24.784 0.0 0.00